SCCY/GXQ METAR and TAF weather

Enter ICAO airport designator
Station Type Date Time Source
SCCY METAR 2020/02/22 05:00 UTC NOAA

SCCY 220500Z AUTO 00000KT CAVOK 08/03 Q1021


Station Type Date Time Source
SCCY Decoded METAR 2020/02/22 05:00 UTC NOAA

Coyhaique, Chile (SCCY) 45-35S 072-07W
Feb 22, 2020 - 12:00 AM EST / 2020.02.22 0500 UTC
Wind: Calm:0
Visibility: greater than 7 mile(s):0
Temperature: 46 F (8 C)
Dew Point: 37 F (3 C)
Relative Humidity: 70%
Pressure (altimeter): 30.15 in. Hg (1021 hPa)
ob: SCCY 220500Z AUTO 00000KT CAVOK 08/03 Q1021
cycle: 5

Station Type Date Time Source
SCCY TAF 2020/02/21 12:00 UTC NOAA

TAF SCCY 211042Z 2112/2200 VRB02KT CAVOK TN05/2112Z TX26/2120Z

Example: see airport list